Bocholt, Belgium
Current Conditions -  °F | °C
As of 1:55 PM on Thursday 30 Oct 2014 (Local Time) from EBBL Reporting Station
Broken Clouds Broken Clouds  
Wind Chill: 61°   Ceiling: 15000
Heat Index: 61°   Visibility: 5mi
Dew Point: 55°   Wind: 5mph
Humidity: 82%   Direction: 190°S
Pressure: 30.18"   Gusts: NA
Location:  51.17°N, 5.58°E
Report Text: EBBL 301255Z 19004KT 8000 BKN150 16/13 Q1022 BLU BLU
Loading
Personal Weather Stations






























Interactive Weather Map
Tropical Storm Tracking
New forecast layout! Learn more

10-Day Weather Forecast

Advertisements
Track Severe Weather on mobile